Time;durP1;ratioP1;P1;durP2;ratioP2;P2;SDS_P1;SDS_P2;PMS_P1;PMS_P2;Temp;Humidity;BMP_temperature;BMP_pressure;BME280_temperature;BME280_humidity;BME280_pressure;Samples;Min_cycle;Max_cycle;Signal;HPM_P1;HPM_P2
2023/12/14 00:00:46;;;;;;;12.05;10.20;;;8.60;99.90;;;;;;5004505;28;20056;-77
2023/12/14 00:03:11;;;;;;;13.70;10.45;;;8.50;99.90;;;;;;4990054;28;20425;-80
2023/12/14 00:05:37;;;;;;;12.50;9.85;;;7.70;99.90;;;;;;4994099;28;20081;-77
2023/12/14 00:08:03;;;;;;;13.68;9.70;;;8.50;99.90;;;;;;5011638;28;20405;-80
2023/12/14 00:10:29;;;;;;;10.93;9.32;;;7.70;99.90;;;;;;5015683;28;20088;-75
2023/12/14 00:12:55;;;;;;;9.45;8.45;;;8.40;99.90;;;;;;4996628;28;20057;-79
2023/12/14 00:15:21;;;;;;;9.20;7.75;;;9.10;99.90;;;;;;5013296;28;20707;-79
2023/12/14 00:17:46;;;;;;;11.13;7.70;;;8.60;99.90;;;;;;4978359;28;20065;-77
2023/12/14 00:20:12;;;;;;;7.88;6.80;;;7.70;99.90;;;;;;4980133;28;20049;-82
2023/12/14 00:22:38;;;;;;;7.63;6.80;;;8.30;99.90;;;;;;4987492;28;20049;-81
2023/12/14 00:25:05;;;;;;;8.70;7.70;;;8.90;99.90;;;;;;4993907;28;20045;-80
2023/12/14 00:27:30;;;;;;;11.07;8.73;;;7.80;99.90;;;;;;4989258;28;20042;-80
2023/12/14 00:29:56;;;;;;;11.48;8.82;;;9.00;99.90;;;;;;5010162;28;20049;-77
2023/12/14 00:32:22;;;;;;;11.35;9.40;;;8.60;99.90;;;;;;5007161;28;20045;-80
2023/12/14 00:34:48;;;;;;;11.98;8.43;;;8.70;99.90;;;;;;5013961;28;20037;-80
2023/12/14 00:37:14;;;;;;;11.48;9.35;;;7.90;99.90;;;;;;4994071;28;20077;-80
2023/12/14 00:39:40;;;;;;;11.20;8.80;;;8.40;99.90;;;;;;5011806;28;20073;-79
2023/12/14 00:42:05;;;;;;;9.98;8.88;;;8.70;99.90;;;;;;5021311;28;20077;-77
2023/12/14 00:44:31;;;;;;;12.40;9.43;;;8.50;99.90;;;;;;5003278;28;20071;-79
2023/12/14 00:46:58;;;;;;;11.38;10.18;;;7.60;99.90;;;;;;5010056;28;20096;-74
2023/12/14 00:49:24;;;;;;;12.95;10.18;;;7.50;99.90;;;;;;5000385;28;20037;-77
2023/12/14 00:51:49;;;;;;;13.18;9.07;;;7.50;99.90;;;;;;5002600;28;20043;-76
2023/12/14 00:54:15;;;;;;;11.93;9.98;;;8.20;99.90;;;;;;5018392;28;20068;-79
2023/12/14 00:56:41;;;;;;;13.43;10.10;;;7.70;99.90;;;;;;5022052;28;20073;-77
2023/12/14 00:59:06;;;;;;;13.40;10.75;;;8.70;99.90;;;;;;4984388;28;20047;-75
2023/12/14 01:01:32;;;;;;;17.38;10.77;;;7.80;99.90;;;;;;5016444;28;20037;-75
2023/12/14 01:03:59;;;;;;;14.65;11.57;;;7.40;99.90;;;;;;5007922;28;20133;-75
2023/12/14 01:06:25;;;;;;;14.95;11.20;;;7.90;99.90;;;;;;5015234;28;20456;-77
2023/12/14 01:08:50;;;;;;;13.95;11.13;;;8.90;99.90;;;;;;5000648;28;20125;-75
2023/12/14 01:11:16;;;;;;;15.43;11.65;;;7.90;99.90;;;;;;5016473;28;20044;-76
2023/12/14 01:13:42;;;;;;;17.40;12.32;;;8.60;99.90;;;;;;5005930;28;20037;-78
2023/12/14 01:16:08;;;;;;;20.70;13.07;;;8.10;99.90;;;;;;5014786;28;20604;-76
2023/12/14 01:18:33;;;;;;;16.42;11.85;;;8.70;99.90;;;;;;5000022;28;20033;-74
2023/12/14 01:20:59;;;;;;;16.80;12.10;;;7.50;99.90;;;;;;4984504;28;20037;-75
2023/12/14 01:23:25;;;;;;;18.42;12.32;;;8.60;99.90;;;;;;5003183;28;20045;-76
2023/12/14 01:25:50;;;;;;;14.88;11.90;;;8.60;99.90;;;;;;4984227;28;20096;-75
2023/12/14 01:28:16;;;;;;;18.05;12.75;;;8.60;99.90;;;;;;4998800;28;20033;-76
2023/12/14 01:30:42;;;;;;;16.42;12.55;;;8.00;99.90;;;;;;5013300;28;20509;-75
2023/12/14 01:33:07;;;;;;;16.70;12.43;;;8.80;99.90;;;;;;5012471;28;20045;-77
2023/12/14 01:35:33;;;;;;;15.95;12.43;;;7.60;99.90;;;;;;5001574;28;20201;-72
2023/12/14 01:37:58;;;;;;;17.17;12.18;;;7.80;99.90;;;;;;4999609;28;20037;-77
2023/12/14 01:40:24;;;;;;;17.67;12.10;;;8.30;99.90;;;;;;4980459;28;20060;-77
2023/12/14 01:42:50;;;;;;;17.23;12.60;;;7.60;99.90;;;;;;5016390;28;20124;-78
2023/12/14 01:45:16;;;;;;;16.73;12.68;;;7.60;99.90;;;;;;5013290;28;20052;-77
2023/12/14 01:47:45;;;;;;;17.88;13.15;;;8.80;99.90;;;;;;5016591;28;20049;-81
2023/12/14 01:50:10;;;;;;;16.13;12.90;;;8.00;99.90;;;;;;5010043;28;20046;-77
2023/12/14 01:52:36;;;;;;;16.23;12.05;;;8.70;99.90;;;;;;4982026;28;20441;-77
2023/12/14 01:55:02;;;;;;;17.05;13.32;;;8.80;99.90;;;;;;5020961;28;20505;-78
2023/12/14 01:57:28;;;;;;;17.83;12.52;;;7.50;99.90;;;;;;5004257;28;20100;-78
2023/12/14 01:59:54;;;;;;;16.60;12.85;;;7.60;99.90;;;;;;4999571;28;20432;-76
2023/12/14 02:02:20;;;;;;;17.80;12.70;;;7.80;99.90;;;;;;4997443;28;20140;-77
2023/12/14 02:04:45;;;;;;;16.25;12.38;;;8.20;99.90;;;;;;5002312;28;20045;-76
2023/12/14 02:07:11;;;;;;;17.92;12.75;;;8.90;99.90;;;;;;5018727;28;20091;-78
2023/12/14 02:09:37;;;;;;;18.27;11.93;;;8.30;99.90;;;;;;5015436;28;20044;-75
2023/12/14 02:12:03;;;;;;;13.27;11.05;;;8.00;99.90;;;;;;5015681;28;20124;-79
2023/12/14 02:14:28;;;;;;;16.27;12.43;;;7.70;99.90;;;;;;5014833;28;20041;-79
2023/12/14 02:16:54;;;;;;;17.33;11.45;;;7.90;99.90;;;;;;5017338;28;20041;-75
2023/12/14 02:19:20;;;;;;;15.13;11.63;;;7.70;99.90;;;;;;5014576;28;20107;-78
2023/12/14 02:21:45;;;;;;;15.80;11.85;;;7.90;99.90;;;;;;4996124;28;20037;-75
2023/12/14 02:24:11;;;;;;;14.40;11.77;;;7.50;99.90;;;;;;5010593;28;20042;-75
2023/12/14 02:26:36;;;;;;;15.63;11.55;;;7.70;99.90;;;;;;4975952;28;20107;-78
2023/12/14 02:29:02;;;;;;;16.20;12.15;;;7.90;99.90;;;;;;4999757;28;20049;-74
2023/12/14 02:31:28;;;;;;;16.23;11.23;;;9.00;99.90;;;;;;5014283;28;20041;-76
2023/12/14 02:33:53;;;;;;;13.20;10.48;;;8.40;99.90;;;;;;5015365;28;20045;-77
2023/12/14 02:36:19;;;;;;;15.82;11.05;;;8.40;99.90;;;;;;5019580;28;20037;-78
2023/12/14 02:38:45;;;;;;;17.58;11.05;;;7.80;99.90;;;;;;5003569;28;20408;-76
2023/12/14 02:41:11;;;;;;;15.93;11.35;;;8.80;99.90;;;;;;4999241;28;20385;-76
2023/12/14 02:43:37;;;;;;;16.42;11.80;;;8.40;99.90;;;;;;5014914;28;20511;-76
2023/12/14 02:46:03;;;;;;;15.40;11.60;;;7.60;99.90;;;;;;4998138;28;20049;-76
2023/12/14 02:48:30;;;;;;;16.25;11.45;;;8.80;99.90;;;;;;4995289;28;20061;-79
2023/12/14 02:50:55;;;;;;;17.00;11.95;;;8.70;99.90;;;;;;4998721;28;20112;-80
2023/12/14 02:53:21;;;;;;;17.90;11.93;;;7.60;99.90;;;;;;4998281;28;20513;-82
2023/12/14 02:55:47;;;;;;;17.17;12.30;;;8.50;99.90;;;;;;5005675;28;20048;-78
2023/12/14 02:58:13;;;;;;;18.73;12.35;;;9.10;99.90;;;;;;4985773;28;20589;-76
2023/12/14 03:00:38;;;;;;;15.85;12.73;;;8.80;99.90;;;;;;4962885;28;20396;-75
2023/12/14 03:03:04;;;;;;;18.33;11.85;;;7.60;99.90;;;;;;5014665;28;20052;-75
2023/12/14 03:05:29;;;;;;;17.67;12.15;;;8.80;99.90;;;;;;4999559;28;21497;-75
2023/12/14 03:07:55;;;;;;;20.10;12.77;;;8.40;99.90;;;;;;4980935;28;20045;-78
2023/12/14 03:10:21;;;;;;;14.98;11.50;;;8.90;99.90;;;;;;4998460;28;20126;-75
2023/12/14 03:12:46;;;;;;;20.05;12.10;;;9.00;99.90;;;;;;4982706;28;20041;-75
2023/12/14 03:15:12;;;;;;;15.63;11.90;;;7.80;99.90;;;;;;4998341;28;20805;-78
2023/12/14 03:17:38;;;;;;;16.17;11.90;;;7.60;99.90;;;;;;4982826;28;20123;-76
2023/12/14 03:20:06;;;;;;;16.75;11.93;;;7.70;99.90;;;;;;5012045;28;20394;-78
2023/12/14 03:22:32;;;;;;;17.70;11.90;;;7.50;99.90;;;;;;4979143;28;20052;-77
2023/12/14 03:24:58;;;;;;;15.43;11.40;;;7.60;99.90;;;;;;5008385;28;20048;-80
2023/12/14 03:27:24;;;;;;;16.98;11.50;;;7.60;99.90;;;;;;4989872;28;20120;-80
2023/12/14 03:29:50;;;;;;;17.58;12.13;;;9.00;99.90;;;;;;5014666;28;20520;-79
2023/12/14 03:32:16;;;;;;;18.80;12.65;;;8.70;99.90;;;;;;5014432;28;20072;-76
2023/12/14 03:34:41;;;;;;;16.38;11.80;;;8.90;99.90;;;;;;4994946;28;20497;-74
2023/12/14 03:37:07;;;;;;;21.25;13.15;;;7.80;99.90;;;;;;4999008;28;20090;-76
2023/12/14 03:39:32;;;;;;;17.50;13.15;;;7.80;99.90;;;;;;5005306;28;20091;-80
2023/12/14 03:41:58;;;;;;;19.00;12.93;;;8.20;99.90;;;;;;4994849;28;20046;-76
2023/12/14 03:44:24;;;;;;;17.38;13.52;;;8.70;99.90;;;;;;5011387;28;20080;-77
2023/12/14 03:46:50;;;;;;;20.08;13.32;;;7.90;99.90;;;;;;5014397;28;20041;-76
2023/12/14 03:49:16;;;;;;;20.42;14.43;;;8.10;99.90;;;;;;5014239;28;20033;-73
2023/12/14 03:51:41;;;;;;;23.25;14.13;;;9.00;99.90;;;;;;5029223;28;20152;-77
2023/12/14 03:54:07;;;;;;;24.08;14.57;;;8.40;99.90;;;;;;4993914;28;20141;-74
2023/12/14 03:56:33;;;;;;;22.35;14.70;;;9.00;99.90;;;;;;4977397;28;20540;-76
2023/12/14 03:58:58;;;;;;;19.83;14.45;;;7.80;99.90;;;;;;4983727;28;20524;-78
2023/12/14 04:01:24;;;;;;;28.92;15.27;;;7.60;99.90;;;;;;5010746;28;20077;-76
2023/12/14 04:03:50;;;;;;;19.92;15.05;;;8.50;99.90;;;;;;5012960;28;20428;-76
2023/12/14 04:06:15;;;;;;;20.80;14.88;;;7.70;99.90;;;;;;4994663;28;20030;-78
2023/12/14 04:08:42;;;;;;;20.50;15.18;;;8.70;99.90;;;;;;5018434;28;20499;-77
2023/12/14 04:11:08;;;;;;;20.83;16.10;;;8.70;99.90;;;;;;5020529;28;20147;-78
2023/12/14 04:13:34;;;;;;;22.52;14.70;;;8.50;99.90;;;;;;4997331;28;20048;-77
2023/12/14 04:16:00;;;;;;;20.50;15.40;;;7.60;99.90;;;;;;5015924;28;20045;-79
2023/12/14 04:18:26;;;;;;;22.58;15.07;;;8.20;99.90;;;;;;4996550;28;20037;-76
2023/12/14 04:20:51;;;;;;;20.50;14.77;;;8.20;99.90;;;;;;5006287;28;20045;-76
2023/12/14 04:23:18;;;;;;;23.83;15.57;;;8.20;99.90;;;;;;4985663;28;20041;-78
2023/12/14 04:25:43;;;;;;;24.52;16.05;;;8.80;99.90;;;;;;5014424;28;20030;-77
2023/12/14 04:28:09;;;;;;;21.38;14.70;;;8.70;99.90;;;;;;5014654;28;20477;-78
2023/12/14 04:30:35;;;;;;;25.73;16.05;;;7.60;99.90;;;;;;5000730;28;20049;-79
2023/12/14 04:33:00;;;;;;;21.45;15.63;;;8.60;99.90;;;;;;5017825;28;20040;-75
2023/12/14 04:35:26;;;;;;;25.55;16.40;;;7.60;99.90;;;;;;5001045;28;20043;-77
2023/12/14 04:37:52;;;;;;;21.52;14.85;;;8.80;99.90;;;;;;5008649;28;20045;-76
2023/12/14 04:40:18;;;;;;;22.17;15.88;;;8.20;99.90;;;;;;5026654;28;20045;-76
2023/12/14 04:42:44;;;;;;;21.20;15.40;;;8.80;99.90;;;;;;5004808;28;20056;-79
2023/12/14 04:45:10;;;;;;;23.20;15.45;;;8.40;99.90;;;;;;5001236;28;20503;-78
2023/12/14 04:47:36;;;;;;;19.52;15.45;;;7.80;99.90;;;;;;5017415;28;20044;-76
2023/12/14 04:50:02;;;;;;;23.15;15.15;;;8.80;99.90;;;;;;5004371;28;20040;-78
2023/12/14 04:52:28;;;;;;;19.80;14.98;;;8.10;99.90;;;;;;5017488;28;20029;-74
2023/12/14 04:54:54;;;;;;;19.10;14.45;;;7.80;99.90;;;;;;5005316;28;20503;-79
2023/12/14 04:57:19;;;;;;;24.58;15.43;;;8.10;99.90;;;;;;5001114;28;20041;-75
2023/12/14 04:59:45;;;;;;;19.20;15.23;;;8.70;99.90;;;;;;5000978;28;20393;-75
2023/12/14 05:02:11;;;;;;;22.70;15.27;;;7.80;99.90;;;;;;5000980;28;20374;-74
2023/12/14 05:04:36;;;;;;;22.85;15.23;;;8.40;99.90;;;;;;5000757;28;20103;-76
2023/12/14 05:07:02;;;;;;;21.52;15.48;;;7.90;99.90;;;;;;5000360;28;20096;-78
2023/12/14 05:09:28;;;;;;;19.63;14.32;;;7.50;99.90;;;;;;5001245;28;20033;-79
2023/12/14 05:11:54;;;;;;;19.20;14.52;;;8.20;99.90;;;;;;5027415;28;20044;-77
2023/12/14 05:14:19;;;;;;;19.98;15.18;;;8.70;99.90;;;;;;5017820;28;20048;-78
2023/12/14 05:16:45;;;;;;;18.30;14.10;;;8.90;99.90;;;;;;5016090;28;20092;-74
2023/12/14 05:19:12;;;;;;;22.05;15.15;;;7.80;99.90;;;;;;5026515;28;20045;-77
2023/12/14 05:21:38;;;;;;;27.90;15.23;;;7.50;99.90;;;;;;5000243;28;20542;-78
2023/12/14 05:24:04;;;;;;;20.38;15.00;;;8.20;99.90;;;;;;5017109;28;20120;-77
2023/12/14 05:26:30;;;;;;;22.27;16.00;;;8.90;99.90;;;;;;5015387;28;20037;-73
2023/12/14 05:28:55;;;;;;;23.15;15.10;;;8.80;99.90;;;;;;5008629;28;20381;-75
2023/12/14 05:31:21;;;;;;;25.90;15.48;;;7.70;99.90;;;;;;5018229;28;20414;-76
2023/12/14 05:33:47;;;;;;;25.13;15.57;;;7.50;99.90;;;;;;5016185;28;20041;-77
2023/12/14 05:36:12;;;;;;;26.75;16.45;;;8.90;99.90;;;;;;5013449;28;20046;-77
2023/12/14 05:38:39;;;;;;;20.92;14.85;;;9.00;99.90;;;;;;5001299;28;20041;-75
2023/12/14 05:41:04;;;;;;;22.45;15.20;;;9.00;99.90;;;;;;5002543;28;20060;-77
2023/12/14 05:43:30;;;;;;;24.38;15.27;;;8.20;99.90;;;;;;5016310;28;20086;-77
2023/12/14 05:45:56;;;;;;;23.85;14.95;;;8.00;99.90;;;;;;4980262;28;20038;-79
2023/12/14 05:48:21;;;;;;;22.83;15.40;;;7.60;99.90;;;;;;4978389;28;20038;-79
2023/12/14 05:50:47;;;;;;;24.05;15.55;;;9.00;99.90;;;;;;5023220;28;20037;-78
2023/12/14 05:53:13;;;;;;;24.17;15.73;;;8.80;99.90;;;;;;4971427;28;20056;-77
2023/12/14 05:55:40;;;;;;;25.85;15.93;;;7.90;99.90;;;;;;4998945;28;20045;-76
2023/12/14 05:58:07;;;;;;;22.45;14.70;;;8.50;99.90;;;;;;5016248;28;20042;-78
2023/12/14 06:00:34;;;;;;;26.45;14.98;;;7.80;99.90;;;;;;5025966;28;20068;-80
2023/12/14 06:03:00;;;;;;;21.65;15.27;;;7.60;99.90;;;;;;5013063;28;20081;-76
2023/12/14 06:05:26;;;;;;;25.92;15.20;;;8.80;99.90;;;;;;4988762;28;20042;-79
2023/12/14 06:07:52;;;;;;;24.13;15.50;;;8.90;99.90;;;;;;4998484;28;20066;-78
2023/12/14 06:10:18;;;;;;;26.05;16.13;;;8.60;99.90;;;;;;5017847;28;20033;-77
2023/12/14 06:12:44;;;;;;;21.92;15.55;;;8.80;99.90;;;;;;4982804;28;20038;-78
2023/12/14 06:15:10;;;;;;;22.05;15.27;;;8.40;99.90;;;;;;4999459;28;20041;-77
2023/12/14 06:17:38;;;;;;;24.08;15.88;;;7.60;99.90;;;;;;5015756;28;20401;-75
2023/12/14 06:20:05;;;;;;;23.00;15.40;;;9.00;99.90;;;;;;5019074;28;20036;-80
2023/12/14 06:22:31;;;;;;;23.85;15.57;;;8.10;99.90;;;;;;5019795;28;20385;-78
2023/12/14 06:24:56;;;;;;;23.30;16.17;;;9.00;99.90;;;;;;4999164;28;20042;-78
2023/12/14 06:27:26;;;;;;;24.10;14.93;;;9.00;99.90;;;;;;5012816;28;20749;-75
2023/12/14 06:29:52;;;;;;;23.02;16.45;;;7.60;99.90;;;;;;5012276;28;20042;-78
2023/12/14 06:32:18;;;;;;;24.63;15.48;;;7.60;99.90;;;;;;5004188;28;20103;-75
2023/12/14 06:34:43;;;;;;;23.10;15.45;;;9.00;99.90;;;;;;4996263;28;20049;-74
2023/12/14 06:37:10;;;;;;;31.90;16.38;;;8.40;99.90;;;;;;4996097;28;20053;-79
2023/12/14 06:39:36;;;;;;;26.10;16.95;;;8.80;99.90;;;;;;4994441;28;20079;-77
2023/12/14 06:42:01;;;;;;;26.13;17.35;;;7.80;99.90;;;;;;4984457;28;20072;-79
2023/12/14 06:44:27;;;;;;;21.73;15.10;;;8.70;99.90;;;;;;5014897;28;20041;-75
2023/12/14 06:46:54;;;;;;;28.20;17.13;;;9.00;99.90;;;;;;4981313;28;20053;-76
2023/12/14 06:49:21;;;;;;;23.55;15.82;;;9.00;99.90;;;;;;4964433;28;20413;-79
2023/12/14 06:51:46;;;;;;;24.50;17.33;;;9.00;99.90;;;;;;4997443;28;20046;-76
2023/12/14 06:54:13;;;;;;;27.00;16.02;;;8.80;99.90;;;;;;5027796;28;20061;-78
2023/12/14 06:56:39;;;;;;;24.67;16.35;;;7.90;99.90;;;;;;4982507;28;20076;-80
2023/12/14 06:59:04;;;;;;;28.60;16.52;;;8.30;99.90;;;;;;5012886;28;20073;-77
2023/12/14 07:01:30;;;;;;;25.48;18.48;;;8.30;99.90;;;;;;4997436;28;20029;-78
2023/12/14 07:03:56;;;;;;;25.63;18.48;;;9.10;99.90;;;;;;4986701;28;20037;-77
2023/12/14 07:06:21;;;;;;;26.67;17.60;;;7.90;99.90;;;;;;4998582;28;20059;-79
2023/12/14 07:08:47;;;;;;;27.58;17.83;;;7.60;99.90;;;;;;5014119;28;20751;-76
2023/12/14 07:11:13;;;;;;;25.08;17.38;;;8.80;99.90;;;;;;5014326;28;20052;-78
2023/12/14 07:13:39;;;;;;;27.13;17.80;;;8.20;99.90;;;;;;5014973;28;20099;-75
2023/12/14 07:16:07;;;;;;;27.23;17.30;;;8.30;99.90;;;;;;5000386;28;20045;-78
2023/12/14 07:18:35;;;;;;;25.55;17.65;;;8.00;99.90;;;;;;4998734;28;20044;-76
2023/12/14 07:21:01;;;;;;;27.17;17.15;;;7.60;99.90;;;;;;4997712;28;20045;-82
2023/12/14 07:23:27;;;;;;;29.75;17.38;;;8.70;99.90;;;;;;4998283;28;20401;-79
2023/12/14 07:25:53;;;;;;;24.40;17.95;;;8.90;99.90;;;;;;5019859;28;20041;-80
2023/12/14 07:28:18;;;;;;;30.50;18.33;;;8.90;99.90;;;;;;4996421;28;20042;-83
2023/12/14 07:30:46;;;;;;;28.60;18.17;;;9.00;99.90;;;;;;5011791;28;20038;-82
2023/12/14 07:33:12;;;;;;;29.15;18.02;;;8.20;99.90;;;;;;5011130;28;20375;-81
2023/12/14 07:35:38;;;;;;;25.98;17.48;;;7.90;99.90;;;;;;5017367;28;20038;-79
2023/12/14 07:38:03;;;;;;;33.17;18.83;;;9.00;99.90;;;;;;5011061;28;20049;-82
2023/12/14 07:40:29;;;;;;;24.80;17.45;;;8.90;99.90;;;;;;4980237;28;20497;-76
2023/12/14 07:42:55;;;;;;;26.75;18.17;;;7.60;99.90;;;;;;4997587;28;20425;-81
2023/12/14 07:45:21;;;;;;;31.33;18.90;;;7.80;99.90;;;;;;4996241;28;20069;-83
2023/12/14 07:47:46;;;;;;;25.67;18.27;;;9.00;99.90;;;;;;5014357;28;20272;-81
2023/12/14 07:50:12;;;;;;;29.40;18.77;;;8.00;99.90;;;;;;5009605;28;20033;-80
2023/12/14 07:52:39;;;;;;;25.50;18.88;;;9.00;99.90;;;;;;5003963;28;20055;-82
2023/12/14 07:55:05;;;;;;;29.95;17.90;;;8.00;99.90;;;;;;5008995;28;20106;-80
2023/12/14 07:57:31;;;;;;;28.50;18.58;;;8.00;99.90;;;;;;5023624;28;20396;-77
2023/12/14 07:59:57;;;;;;;32.28;19.55;;;7.80;99.90;;;;;;5013623;28;20049;-81
2023/12/14 08:02:23;;;;;;;31.13;19.30;;;7.70;99.90;;;;;;5010263;28;20044;-81
2023/12/14 08:04:49;;;;;;;28.70;18.90;;;8.00;99.90;;;;;;5005784;28;20042;-81
2023/12/14 08:07:14;;;;;;;26.50;18.85;;;7.70;99.90;;;;;;5032186;28;20087;-82
2023/12/14 08:09:40;;;;;;;32.70;18.83;;;8.80;99.90;;;;;;4972949;28;20068;-80
2023/12/14 08:12:06;;;;;;;28.75;18.83;;;8.30;99.90;;;;;;4977956;28;20046;-84
2023/12/14 08:14:34;;;;;;;29.13;18.25;;;8.30;99.90;;;;;;5012658;28;20045;-82
2023/12/14 08:17:00;;;;;;;29.35;19.05;;;8.80;99.90;;;;;;5009791;28;20072;-80
2023/12/14 08:19:26;;;;;;;26.27;17.83;;;9.10;99.90;;;;;;4992061;28;20106;-80
2023/12/14 08:21:52;;;;;;;25.40;17.88;;;8.40;99.90;;;;;;4995857;28;20040;-81
2023/12/14 08:24:17;;;;;;;28.00;19.02;;;8.70;99.90;;;;;;5012554;28;20466;-79
2023/12/14 08:26:43;;;;;;;27.08;17.92;;;8.80;99.90;;;;;;5029426;28;20052;-81
2023/12/14 08:29:09;;;;;;;24.05;17.73;;;8.50;99.90;;;;;;5014561;28;20643;-81
2023/12/14 08:31:35;;;;;;;28.65;19.58;;;8.90;99.90;;;;;;5010444;28;20094;-81
2023/12/14 08:34:00;;;;;;;28.38;19.10;;;7.80;99.90;;;;;;5013115;28;20120;-82
2023/12/14 08:36:26;;;;;;;31.65;18.27;;;8.20;99.90;;;;;;5031801;28;20044;-81
2023/12/14 08:38:52;;;;;;;25.98;18.67;;;9.00;99.90;;;;;;5030562;28;20037;-81
2023/12/14 08:41:17;;;;;;;26.23;18.08;;;8.20;99.90;;;;;;5011656;28;20159;-82
2023/12/14 08:43:43;;;;;;;24.17;18.48;;;8.10;99.90;;;;;;4993409;28;20048;-83
2023/12/14 08:46:10;;;;;;;29.00;18.70;;;9.20;99.90;;;;;;5026682;28;20045;-84
2023/12/14 08:48:35;;;;;;;27.85;17.67;;;8.00;99.90;;;;;;5013809;28;20033;-78
2023/12/14 08:51:01;;;;;;;28.73;18.15;;;7.90;99.90;;;;;;4991301;28;20403;-82
2023/12/14 08:53:28;;;;;;;29.17;18.92;;;9.30;99.90;;;;;;5030763;28;20488;-86
2023/12/14 08:55:55;;;;;;;29.02;18.35;;;9.30;99.90;;;;;;4979495;28;20046;-80
2023/12/14 08:58:21;;;;;;;29.30;18.98;;;7.90;99.90;;;;;;4979221;28;20053;-83
2023/12/14 09:00:47;;;;;;;26.88;18.45;;;8.90;99.90;;;;;;4997084;28;20482;-79
2023/12/14 09:03:13;;;;;;;24.05;18.02;;;9.10;99.90;;;;;;4968863;28;20033;-79
2023/12/14 09:05:41;;;;;;;29.08;19.10;;;8.20;99.90;;;;;;4984133;28;20429;-80
2023/12/14 09:08:07;;;;;;;26.75;18.90;;;8.80;99.90;;;;;;4990818;28;20433;-80
2023/12/14 09:10:33;;;;;;;26.55;18.83;;;8.10;99.90;;;;;;4974504;28;20041;-79
2023/12/14 09:13:03;;;;;;;29.25;18.67;;;8.80;99.90;;;;;;4985057;28;20041;-78
2023/12/14 09:15:30;;;;;;;27.35;17.95;;;9.20;99.90;;;;;;5003590;28;20402;-81
2023/12/14 09:17:56;;;;;;;27.05;18.42;;;8.20;99.90;;;;;;5005382;28;20099;-80
2023/12/14 09:20:22;;;;;;;25.98;18.30;;;9.50;99.90;;;;;;4965100;28;20039;-79
2023/12/14 09:22:47;;;;;;;29.17;18.60;;;9.00;99.90;;;;;;4988357;28;20040;-77
2023/12/14 09:25:13;;;;;;;23.65;17.15;;;9.30;99.90;;;;;;4980257;28;20437;-79
2023/12/14 09:27:39;;;;;;;24.08;18.05;;;9.10;99.90;;;;;;4986984;28;20026;-79
2023/12/14 09:30:05;;;;;;;24.60;17.98;;;8.20;99.90;;;;;;4987164;28;20037;-79
2023/12/14 09:32:31;;;;;;;28.25;18.27;;;8.40;99.90;;;;;;4987685;28;20087;-78
2023/12/14 09:34:56;;;;;;;28.50;17.65;;;9.60;99.90;;;;;;4990404;28;20068;-79
2023/12/14 09:37:22;;;;;;;25.02;16.92;;;9.20;99.90;;;;;;4970875;28;20045;-81
2023/12/14 09:39:48;;;;;;;26.35;16.85;;;9.50;99.90;;;;;;4989968;28;20096;-78
2023/12/14 09:42:18;;;;;;;28.98;17.98;;;8.30;99.90;;;;;;4967653;28;20091;-80
2023/12/14 09:44:44;;;;;;;28.23;18.55;;;9.60;99.90;;;;;;5000945;28;20034;-76
2023/12/14 09:47:10;;;;;;;22.13;17.45;;;9.50;99.90;;;;;;4999960;28;20359;-80
2023/12/14 09:49:37;;;;;;;24.92;17.25;;;9.50;99.90;;;;;;4988672;28;20091;-78
2023/12/14 09:52:03;;;;;;;26.45;18.10;;;8.40;99.90;;;;;;5003790;28;20139;-83
2023/12/14 09:54:28;;;;;;;24.40;18.05;;;8.30;99.90;;;;;;4998769;28;20515;-80
2023/12/14 09:56:55;;;;;;;26.15;16.88;;;8.40;99.90;;;;;;5015054;28;20515;-79
2023/12/14 09:59:21;;;;;;;22.48;16.15;;;9.20;99.90;;;;;;5010231;28;20076;-81
2023/12/14 10:01:47;;;;;;;28.92;17.42;;;9.50;99.90;;;;;;5016563;28;20479;-80
2023/12/14 10:04:17;;;;;;;25.33;16.48;;;9.60;99.90;;;;;;5030308;28;20124;-81
2023/12/14 10:06:45;;;;;;;28.23;18.70;;;9.40;99.90;;;;;;4990743;28;20052;-78
2023/12/14 10:09:18;;;;;;;24.23;17.38;;;8.70;99.90;;;;;;5030101;28;20081;-78
2023/12/14 10:11:45;;;;;;;23.52;17.75;;;9.60;99.90;;;;;;5020860;28;20051;-78
2023/12/14 10:14:25;;;;;;;24.50;17.08;;;9.60;99.90;;;;;;5006452;28;20041;-79
2023/12/14 10:16:51;;;;;;;25.98;17.33;;;9.00;99.90;;;;;;5011250;28;20434;-75
2023/12/14 10:19:18;;;;;;;24.45;16.13;;;9.60;99.90;;;;;;5013721;28;20045;-80
2023/12/14 10:21:46;;;;;;;27.30;18.05;;;9.30;99.90;;;;;;4997956;28;20108;-82
2023/12/14 10:24:13;;;;;;;24.83;16.92;;;9.30;99.90;;;;;;5015125;28;20101;-80
2023/12/14 10:26:39;;;;;;;21.98;16.55;;;8.30;99.90;;;;;;5015776;28;20520;-80
2023/12/14 10:29:04;;;;;;;24.67;16.98;;;8.30;99.90;;;;;;5030579;28;20067;-83
2023/12/14 10:31:37;;;;;;;24.42;16.33;;;9.60;99.90;;;;;;4997776;28;20076;-81
2023/12/14 10:34:04;;;;;;;25.73;17.42;;;9.60;99.90;;;;;;4983512;28;20070;-81
2023/12/14 10:36:30;;;;;;;25.40;17.27;;;9.50;99.90;;;;;;5014072;28;20477;-77
2023/12/14 10:39:00;;;;;;;26.73;17.65;;;8.50;99.90;;;;;;5025438;28;20040;-79
2023/12/14 10:41:28;;;;;;;27.02;17.88;;;9.50;99.90;;;;;;5029597;28;20036;-83
2023/12/14 10:43:56;;;;;;;25.55;17.58;;;9.70;99.90;;;;;;5030487;28;20041;-77
2023/12/14 10:46:23;;;;;;;25.67;17.13;;;9.90;99.90;;;;;;5013487;28;20037;-79
2023/12/14 10:48:53;;;;;;;26.02;17.88;;;10.00;99.90;;;;;;5028019;28;20044;-79
2023/12/14 10:51:21;;;;;;;23.95;16.77;;;9.90;99.90;;;;;;5022826;28;20045;-82
2023/12/14 10:53:48;;;;;;;25.75;17.48;;;8.60;99.90;;;;;;5008636;28;20037;-80
2023/12/14 10:56:16;;;;;;;24.15;16.58;;;9.20;99.90;;;;;;5022987;28;20091;-81
2023/12/14 10:58:51;;;;;;;22.50;16.80;;;8.60;99.90;;;;;;5019733;28;20351;-80
2023/12/14 11:01:20;;;;;;;25.90;18.00;;;8.60;99.90;;;;;;5025404;28;20037;-83
2023/12/14 11:03:47;;;;;;;24.30;17.83;;;10.10;99.90;;;;;;5012236;28;20041;-81
2023/12/14 11:06:35;;;;;;;26.95;17.80;;;10.00;99.90;;;;;;5013074;28;20481;-80
2023/12/14 11:09:06;;;;;;;23.42;18.17;;;8.80;99.90;;;;;;5027117;28;20119;-82
2023/12/14 11:11:57;;;;;;;25.90;17.45;;;9.70;99.90;;;;;;5012311;28;20131;-78
2023/12/14 11:14:24;;;;;;;29.67;18.98;;;8.80;99.90;;;;;;5027585;28;20052;-78
2023/12/14 11:16:54;;;;;;;25.80;17.98;;;8.60;99.90;;;;;;5012307;28;20041;-77
2023/12/14 11:19:25;;;;;;;24.88;17.38;;;9.00;99.90;;;;;;5005939;28;20343;-83
2023/12/14 11:21:57;;;;;;;24.58;18.17;;;9.70;99.90;;;;;;5014178;28;20046;-82
2023/12/14 11:24:23;;;;;;;22.67;17.92;;;9.00;99.90;;;;;;5000521;28;20040;-78
2023/12/14 11:26:49;;;;;;;27.17;18.73;;;10.00;99.90;;;;;;5020794;28;20049;-81
2023/12/14 11:29:15;;;;;;;26.48;18.75;;;9.90;99.90;;;;;;5028461;28;20480;-79
2023/12/14 11:31:41;;;;;;;26.40;18.35;;;9.00;99.90;;;;;;5012658;28;20118;-79
2023/12/14 11:34:07;;;;;;;25.67;18.63;;;9.00;99.90;;;;;;5003093;28;20052;-76
2023/12/14 11:36:33;;;;;;;23.65;17.70;;;10.30;99.90;;;;;;4989396;28;20151;-76
2023/12/14 11:38:59;;;;;;;23.92;17.30;;;10.30;99.90;;;;;;5003735;28;20438;-81
2023/12/14 11:41:29;;;;;;;25.13;17.95;;;10.20;99.90;;;;;;5007695;28;20040;-78
2023/12/14 11:43:55;;;;;;;24.52;17.88;;;8.70;99.90;;;;;;5010531;28;20049;-82
2023/12/14 11:46:21;;;;;;;25.63;17.65;;;8.90;99.90;;;;;;5001337;28;20033;-80
2023/12/14 11:48:51;;;;;;;23.58;17.17;;;9.00;99.90;;;;;;4971403;28;20452;-80
2023/12/14 11:51:17;;;;;;;24.27;17.27;;;8.90;99.90;;;;;;4984073;28;20380;-79
2023/12/14 11:53:47;;;;;;;26.38;17.70;;;9.90;99.90;;;;;;5027957;28;20048;-80
2023/12/14 11:56:17;;;;;;;24.52;16.73;;;10.50;99.90;;;;;;5028063;28;20127;-79
2023/12/14 11:58:44;;;;;;;24.85;17.42;;;10.50;99.90;;;;;;5008507;28;20389;-79
2023/12/14 12:01:18;;;;;;;24.85;17.50;;;9.30;99.90;;;;;;5023618;28;20484;-83
2023/12/14 12:03:45;;;;;;;21.45;16.27;;;10.30;99.90;;;;;;4990407;28;20044;-81
2023/12/14 12:06:24;;;;;;;20.67;16.55;;;10.20;99.90;;;;;;4992110;28;20035;-79
2023/12/14 12:08:51;;;;;;;22.58;16.60;;;10.00;99.90;;;;;;5025672;28;20427;-79
2023/12/14 12:11:18;;;;;;;25.88;16.95;;;10.10;99.90;;;;;;5011864;28;20045;-79
2023/12/14 12:13:43;;;;;;;22.25;15.90;;;9.00;99.90;;;;;;5023166;28;20033;-80
2023/12/14 12:16:09;;;;;;;20.52;15.07;;;9.60;99.90;;;;;;5006692;28;20397;-79
2023/12/14 12:18:35;;;;;;;21.95;14.52;;;8.80;99.90;;;;;;5027780;28;20136;-78
2023/12/14 12:21:03;;;;;;;20.80;14.43;;;9.50;99.90;;;;;;4992538;28;20063;-82
2023/12/14 12:23:29;;;;;;;22.42;14.80;;;9.60;99.90;;;;;;5012144;28;20041;-83
2023/12/14 12:25:55;;;;;;;21.80;14.50;;;9.00;99.90;;;;;;4992438;28;20045;-77
2023/12/14 12:28:21;;;;;;;21.00;14.55;;;9.40;99.90;;;;;;4991540;28;20033;-80
2023/12/14 12:30:47;;;;;;;23.15;13.98;;;9.10;99.90;;;;;;5012531;28;20076;-81
2023/12/14 12:33:13;;;;;;;21.85;14.20;;;9.50;99.90;;;;;;5000765;28;20069;-77